Time;durP1;ratioP1;P1;durP2;ratioP2;P2;SDS_P1;SDS_P2;PMS_P1;PMS_P2;Temp;Humidity;BMP_temperature;BMP_pressure;BME280_temperature;BME280_humidity;BME280_pressure;Samples;Min_cycle;Max_cycle;Signal;HPM_P1;HPM_P2
2022/02/20 00:01:57;;;;;;;11.27;1.50;;;;;;;3.68;100.00;99376.91;4771188;30;20482;-77
2022/02/20 00:04:23;;;;;;;11.90;1.45;;;;;;;3.69;100.00;99371.41;4770631;30;20044;-77
2022/02/20 00:06:48;;;;;;;12.05;1.73;;;;;;;3.69;100.00;99371.41;4772028;30;20147;-77
2022/02/20 00:09:14;;;;;;;9.85;1.60;;;;;;;3.64;100.00;99360.53;4756562;30;20063;-78
2022/02/20 00:11:39;;;;;;;15.43;1.75;;;;;;;3.73;100.00;99372.66;4769828;30;20044;-77
2022/02/20 00:14:04;;;;;;;11.52;1.50;;;;;;;3.54;100.00;99336.03;4770559;30;20035;-77
2022/02/20 00:16:30;;;;;;;12.70;1.90;;;;;;;3.78;100.00;99376.59;4770814;30;20035;-77
2022/02/20 00:18:55;;;;;;;11.65;1.63;;;;;;;3.78;100.00;99379.28;4771477;30;20035;-77
2022/02/20 00:21:21;;;;;;;12.05;1.77;;;;;;;3.63;100.00;99404.06;4785731;30;20136;-78
2022/02/20 00:23:46;;;;;;;9.23;1.02;;;;;;;3.40;100.00;99396.25;4789313;29;20039;-77
2022/02/20 00:26:11;;;;;;;16.38;1.50;;;;;;;3.40;100.00;99398.09;4770723;30;20131;-78
2022/02/20 00:28:38;;;;;;;10.65;1.40;;;;;;;3.23;100.00;99385.00;4771139;30;20043;-78
2022/02/20 00:31:10;;;;;;;8.25;0.88;;;;;;;3.37;100.00;99404.59;4755312;30;20545;-78
2022/02/20 00:33:35;;;;;;;13.77;1.48;;;;;;;3.36;100.00;99404.78;4770965;30;20131;-78
2022/02/20 00:36:02;;;;;;;8.05;0.57;;;;;;;3.34;100.00;99407.63;4770819;30;20111;-78
2022/02/20 00:38:28;;;;;;;4.97;0.70;;;;;;;3.30;100.00;99425.78;4772690;30;20035;-78
2022/02/20 00:40:53;;;;;;;6.25;0.80;;;;;;;3.28;100.00;99422.50;4770339;30;20032;-78
2022/02/20 00:43:20;;;;;;;8.90;1.50;;;;;;;3.30;100.00;99431.09;4777164;30;20036;-79
2022/02/20 00:45:46;;;;;;;6.78;0.95;;;;;;;3.29;100.00;99426.81;4763206;30;20404;-78
2022/02/20 00:48:16;;;;;;;8.43;0.80;;;;;;;3.37;100.00;99433.03;4775747;30;20031;-78
2022/02/20 00:50:41;;;;;;;2.40;0.50;;;;;;;3.35;100.00;99429.75;4771398;30;20111;-77
2022/02/20 00:53:07;;;;;;;5.50;0.60;;;;;;;3.29;100.00;99416.16;4773214;30;20131;-78
2022/02/20 00:55:32;;;;;;;2.63;0.47;;;;;;;3.31;100.00;99421.28;4771307;30;20379;-77
2022/02/20 00:57:58;;;;;;;3.65;0.52;;;;;;;3.34;100.00;99425.41;4755891;30;20123;-78
2022/02/20 01:00:24;;;;;;;5.55;0.70;;;;;;;3.26;100.00;99429.00;4755442;30;20128;-78
2022/02/20 01:02:50;;;;;;;2.25;0.30;;;;;;;3.26;100.00;99424.53;4772149;30;20054;-77
2022/02/20 01:05:16;;;;;;;4.82;0.55;;;;;;;3.30;100.00;99435.59;4769117;30;20135;-78
2022/02/20 01:07:41;;;;;;;7.05;0.70;;;;;;;3.14;100.00;99435.81;4770438;30;20118;-78
2022/02/20 01:10:09;;;;;;;6.20;0.50;;;;;;;2.94;100.00;99416.94;4768335;30;20109;-78
2022/02/20 01:12:35;;;;;;;7.00;0.70;;;;;;;3.16;100.00;99444.44;4771752;30;20032;-78
2022/02/20 01:15:00;;;;;;;4.90;0.50;;;;;;;3.12;100.00;99441.31;4769566;30;20344;-77
2022/02/20 01:17:26;;;;;;;5.97;0.57;;;;;;;3.02;100.00;99459.38;4769056;30;20050;-78
2022/02/20 01:19:53;;;;;;;4.60;0.50;;;;;;;2.97;100.00;99456.44;4770009;30;20035;-78
2022/02/20 01:22:22;;;;;;;6.65;0.80;;;;;;;2.97;100.00;99465.22;4770150;30;20028;-78
2022/02/20 01:24:47;;;;;;;8.32;0.60;;;;;;;2.88;100.00;99460.16;4775522;30;20410;-77
2022/02/20 01:27:13;;;;;;;9.43;0.73;;;;;;;2.90;100.00;99464.31;4758662;30;20100;-77
2022/02/20 01:29:38;;;;;;;7.28;0.60;;;;;;;2.93;100.00;99455.16;4769095;30;20051;-78
2022/02/20 01:32:05;;;;;;;5.60;0.70;;;;;;;2.98;100.00;99455.41;4769470;30;20063;-78
2022/02/20 01:34:31;;;;;;;5.90;0.60;;;;;;;2.96;100.00;99463.56;4754014;30;20487;-77
2022/02/20 01:36:56;;;;;;;6.07;0.68;;;;;;;2.57;100.00;99402.72;4770394;30;20074;-77
2022/02/20 01:39:21;;;;;;;5.95;0.60;;;;;;;2.97;100.00;99464.41;4770232;30;20032;-78
2022/02/20 01:41:50;;;;;;;4.55;0.50;;;;;;;2.89;100.00;99462.66;4769003;30;20031;-77
2022/02/20 01:44:16;;;;;;;8.43;0.93;;;;;;;2.94;100.00;99473.56;4770290;30;20502;-78
2022/02/20 01:46:49;;;;;;;5.63;0.60;;;;;;;2.93;100.00;99477.22;4768663;30;20039;-77
2022/02/20 01:49:16;;;;;;;4.57;0.60;;;;;;;2.90;100.00;99482.91;4753099;30;20040;-77
2022/02/20 01:51:44;;;;;;;3.50;0.82;;;;;;;2.87;100.00;99485.09;4771013;30;20031;-77
2022/02/20 01:54:10;;;;;;;3.08;0.50;;;;;;;2.34;100.00;99416.06;4769158;30;20059;-77
2022/02/20 01:56:36;;;;;;;6.88;0.88;;;;;;;2.83;100.00;99496.09;4769480;30;20081;-77
2022/02/20 01:59:03;;;;;;;5.55;0.85;;;;;;;2.80;100.00;99492.97;4769212;30;20028;-77
2022/02/20 02:01:28;;;;;;;4.32;0.60;;;;;;;2.80;100.00;99492.97;4768388;30;20348;-77
2022/02/20 02:03:54;;;;;;;4.72;0.52;;;;;;;2.79;100.00;99497.47;4755494;30;20046;-77
2022/02/20 02:06:19;;;;;;;3.75;0.68;;;;;;;2.81;100.00;99514.06;4767828;30;20061;-77
2022/02/20 02:08:45;;;;;;;3.70;0.85;;;;;;;2.81;100.00;99508.75;4770466;30;20680;-77
2022/02/20 02:11:11;;;;;;;4.90;0.57;;;;;;;2.73;100.00;99507.97;4768951;30;20120;-77
2022/02/20 02:13:37;;;;;;;5.28;0.80;;;;;;;2.68;100.00;99500.56;4769816;30;20110;-77
2022/02/20 02:16:03;;;;;;;7.68;1.15;;;;;;;2.70;100.00;99514.47;4769491;30;20031;-78
2022/02/20 02:18:30;;;;;;;3.85;0.75;;;;;;;2.57;100.00;99508.94;4769052;30;20374;-77
2022/02/20 02:20:56;;;;;;;4.90;0.80;;;;;;;2.46;100.00;99523.47;4769222;30;20517;-77
2022/02/20 02:23:21;;;;;;;7.93;0.98;;;;;;;2.33;100.00;99528.56;4771585;30;20036;-76
2022/02/20 02:25:54;;;;;;;4.57;0.82;;;;;;;2.40;100.00;99534.81;4768293;30;20063;-77
2022/02/20 02:28:20;;;;;;;3.22;0.75;;;;;;;2.48;100.00;99548.00;4770968;30;20123;-77
2022/02/20 02:30:47;;;;;;;4.07;0.65;;;;;;;2.43;100.00;99537.09;4768274;30;20499;-77
2022/02/20 02:33:12;;;;;;;6.45;0.80;;;;;;;2.40;100.00;99545.44;4768806;30;20047;-77
2022/02/20 02:35:38;;;;;;;8.00;1.00;;;;;;;2.34;100.00;99551.44;4754258;30;20106;-77
2022/02/20 02:38:04;;;;;;;7.80;1.52;;;;;;;2.33;100.00;99555.91;4767160;30;20439;-77
2022/02/20 02:40:31;;;;;;;5.63;1.10;;;;;;;2.28;100.00;99547.66;4768933;30;20178;-77
2022/02/20 02:42:56;;;;;;;2.58;0.82;;;;;;;2.31;100.00;99565.88;4769268;30;20092;-77
2022/02/20 02:45:26;;;;;;;5.25;0.80;;;;;;;2.30;100.00;99566.06;4768901;30;20020;-77
2022/02/20 02:47:53;;;;;;;4.45;0.85;;;;;;;2.26;100.00;99568.25;4773369;30;20122;-77
2022/02/20 02:50:19;;;;;;;9.70;1.33;;;;;;;2.18;100.00;99570.94;4776127;30;20092;-77
2022/02/20 02:52:45;;;;;;;4.30;0.80;;;;;;;2.13;100.00;99572.50;4772666;30;20056;-77
2022/02/20 02:55:11;;;;;;;5.50;0.90;;;;;;;2.10;100.00;99563.88;4769544;30;20039;-77
2022/02/20 02:57:37;;;;;;;6.53;0.90;;;;;;;2.02;100.00;99553.31;4757553;30;20370;-77
2022/02/20 03:00:03;;;;;;;5.60;0.90;;;;;;;2.08;100.00;99573.00;4773064;30;20044;-77
2022/02/20 03:02:29;;;;;;;7.35;1.25;;;;;;;2.03;100.00;99572.72;4772426;30;20075;-77
2022/02/20 03:04:54;;;;;;;9.02;0.75;;;;;;;2.04;100.00;99575.16;4757896;30;20036;-77
2022/02/20 03:07:19;;;;;;;8.98;1.65;;;;;;;1.83;100.00;99549.25;4772318;30;20379;-77
2022/02/20 03:09:45;;;;;;;5.47;0.95;;;;;;;1.87;100.00;99558.50;4775189;30;20114;-77
2022/02/20 03:12:10;;;;;;;7.47;0.90;;;;;;;1.96;100.00;99575.22;4772640;30;20097;-77
2022/02/20 03:14:36;;;;;;;3.63;0.80;;;;;;;1.96;100.00;99577.88;4757606;30;20047;-77
2022/02/20 03:17:02;;;;;;;4.53;0.63;;;;;;;1.77;100.00;99560.56;4774388;30;20039;-77
2022/02/20 03:19:27;;;;;;;7.50;1.13;;;;;;;1.82;100.00;99563.53;4778700;30;20040;-77
2022/02/20 03:21:53;;;;;;;5.95;1.00;;;;;;;1.89;100.00;99584.88;4757765;30;20486;-78
2022/02/20 03:24:19;;;;;;;5.30;0.90;;;;;;;1.81;100.00;99574.28;4771680;30;20418;-77
2022/02/20 03:26:45;;;;;;;4.40;0.80;;;;;;;1.70;100.00;99569.38;4772862;30;20031;-77
2022/02/20 03:29:10;;;;;;;7.40;1.17;;;;;;;1.80;100.00;99594.69;4771288;30;20344;-77
2022/02/20 03:31:36;;;;;;;8.65;0.98;;;;;;;1.77;100.00;99595.03;4755585;30;20032;-77
2022/02/20 03:34:02;;;;;;;4.00;0.85;;;;;;;1.75;100.00;99598.84;4773370;30;20036;-77
2022/02/20 03:36:27;;;;;;;5.95;0.90;;;;;;;1.64;100.00;99584.16;4770784;30;20050;-77
2022/02/20 03:38:53;;;;;;;5.03;0.50;;;;;;;1.74;100.00;99605.97;4771802;30;20071;-77
2022/02/20 03:41:18;;;;;;;3.78;0.82;;;;;;;1.54;100.00;99583.53;4772597;30;20042;-76
2022/02/20 03:43:44;;;;;;;5.97;0.82;;;;;;;1.60;100.00;99604.88;4771901;30;20048;-77
2022/02/20 03:46:09;;;;;;;4.28;0.82;;;;;;;1.27;100.00;99576.81;4772289;30;20355;-77
2022/02/20 03:48:35;;;;;;;5.63;0.95;;;;;;;1.32;100.00;99609.72;4756193;30;20097;-77
2022/02/20 03:51:00;;;;;;;6.88;0.82;;;;;;;1.25;100.00;99607.94;4770689;30;20028;-77
2022/02/20 03:53:25;;;;;;;6.82;0.90;;;;;;;1.14;100.00;99604.63;4771390;30;20039;-77
2022/02/20 03:55:52;;;;;;;7.10;0.95;;;;;;;1.05;100.00;99597.69;4771363;30;20040;-77
2022/02/20 03:58:18;;;;;;;4.22;0.70;;;;;;;0.96;100.00;99603.16;4768876;30;20035;-77
2022/02/20 04:00:43;;;;;;;9.45;0.80;;;;;;;0.90;100.00;99602.84;4771252;30;20028;-77
2022/02/20 04:03:09;;;;;;;4.22;0.68;;;;;;;0.83;100.00;99608.94;4771345;30;20145;-77
2022/02/20 04:05:35;;;;;;;3.38;0.52;;;;;;;0.72;100.00;99615.41;4771571;30;20389;-77
2022/02/20 04:08:00;;;;;;;4.10;0.98;;;;;;;0.58;100.00;99610.78;4755333;30;20035;-77
2022/02/20 04:10:26;;;;;;;5.03;1.00;;;;;;;0.44;100.00;99602.50;4773078;30;20031;-77
2022/02/20 04:12:51;;;;;;;5.35;0.88;;;;;;;0.44;100.00;99626.31;4772888;30;20551;-78
2022/02/20 04:15:18;;;;;;;4.53;0.80;;;;;;;0.36;100.00;99610.41;4775969;30;20130;-77
2022/02/20 04:17:45;;;;;;;2.42;0.73;;;;;;;0.31;100.00;99615.38;4771320;30;20031;-77
2022/02/20 04:20:15;;;;;;;4.10;0.50;;;;;;;0.20;100.00;99613.03;4769094;30;20047;-77
2022/02/20 04:22:41;;;;;;;4.45;0.70;;;;;;;0.09;100.00;99605.38;4775135;30;20052;-78
2022/02/20 04:25:07;;;;;;;1.73;0.60;;;;;;;-0.04;100.00;99589.97;4770747;30;20054;-77
2022/02/20 04:27:33;;;;;;;6.18;0.70;;;;;;;0.05;100.00;99610.16;4772345;30;20352;-77
2022/02/20 04:29:58;;;;;;;8.80;0.95;;;;;;;-0.04;100.00;99604.00;4770543;30;20119;-77
2022/02/20 04:32:24;;;;;;;7.60;0.88;;;;;;;-0.15;100.00;99590.28;4769982;30;20126;-77
2022/02/20 04:34:51;;;;;;;4.00;0.80;;;;;;;-0.09;100.00;99613.44;4752556;30;20058;-77
2022/02/20 04:37:18;;;;;;;4.18;0.73;;;;;;;-0.24;100.00;99586.75;4772139;30;20463;-77
2022/02/20 04:39:43;;;;;;;4.97;0.98;;;;;;;-0.13;100.00;99610.28;4769404;30;20044;-77
2022/02/20 04:42:09;;;;;;;4.75;0.77;;;;;;;-0.31;100.00;99583.09;4768561;30;20429;-77
2022/02/20 04:44:34;;;;;;;4.93;0.77;;;;;;;-0.20;100.00;99613.69;4770759;30;20040;-77
2022/02/20 04:46:59;;;;;;;4.82;0.85;;;;;;;-0.56;100.00;99563.69;4769929;30;20036;-77
2022/02/20 04:49:25;;;;;;;4.85;0.75;;;;;;;-0.26;100.00;99623.13;4770472;30;20035;-77
2022/02/20 04:51:51;;;;;;;4.78;0.80;;;;;;;-0.28;100.00;99611.88;4755994;30;20067;-77
2022/02/20 04:54:17;;;;;;;3.85;0.95;;;;;;;-0.30;100.00;99619.13;4770341;30;20040;-77
2022/02/20 04:56:43;;;;;;;4.25;0.80;;;;;;;-0.32;100.00;99613.19;4770829;30;20046;-77
2022/02/20 04:59:14;;;;;;;7.43;0.77;;;;;;;-0.47;100.00;99589.97;4741156;30;20050;-78
2022/02/20 05:01:40;;;;;;;5.35;1.05;;;;;;;-0.38;100.00;99613.81;4771237;30;20398;-77
2022/02/20 05:04:06;;;;;;;5.20;0.73;;;;;;;-0.39;100.00;99607.69;4769251;30;20039;-77
2022/02/20 05:06:31;;;;;;;5.03;0.73;;;;;;;-0.50;100.00;99605.31;4770840;30;20490;-78
2022/02/20 05:08:59;;;;;;;3.70;0.80;;;;;;;-0.52;100.00;99607.28;4771372;30;20031;-78
2022/02/20 05:11:27;;;;;;;3.10;0.60;;;;;;;-0.58;100.00;99608.75;4770703;30;20036;-78
2022/02/20 05:13:54;;;;;;;9.57;0.90;;;;;;;-0.63;100.00;99611.03;4770461;30;20427;-77
2022/02/20 05:16:21;;;;;;;7.45;0.90;;;;;;;-0.63;100.00;99618.97;4770190;30;20039;-77
2022/02/20 05:18:47;;;;;;;9.93;2.15;;;;;;;-0.85;100.00;99580.69;4754021;30;20130;-78
2022/02/20 05:21:13;;;;;;;9.23;0.98;;;;;;;-0.64;100.00;99612.00;4769848;30;20063;-78
2022/02/20 05:23:38;;;;;;;3.03;0.70;;;;;;;-0.82;100.00;99576.91;4771613;30;20467;-77
2022/02/20 05:26:05;;;;;;;4.30;1.00;;;;;;;-0.79;100.00;99587.16;4771974;30;20048;-78
2022/02/20 05:28:31;;;;;;;5.82;0.90;;;;;;;-0.85;100.00;99582.50;4791680;29;20046;-78
2022/02/20 05:30:56;;;;;;;7.05;1.38;;;;;;;-0.71;100.00;99605.69;4771663;30;20028;-77
2022/02/20 05:33:21;;;;;;;9.98;1.30;;;;;;;-0.68;100.00;99612.47;4771055;30;20446;-78
2022/02/20 05:35:47;;;;;;;4.25;0.70;;;;;;;-0.74;100.00;99593.63;4769614;30;20371;-78
2022/02/20 05:38:12;;;;;;;7.28;0.95;;;;;;;-0.71;100.00;99597.78;4770696;30;20048;-78
2022/02/20 05:40:38;;;;;;;4.63;1.08;;;;;;;-0.62;100.00;99607.41;4769006;30;20078;-78
2022/02/20 05:43:05;;;;;;;8.18;0.82;;;;;;;-0.78;100.00;99587.00;4768622;30;20134;-78
2022/02/20 05:45:31;;;;;;;8.13;0.77;;;;;;;-0.62;100.00;99617.16;4770157;30;20036;-78
2022/02/20 05:47:58;;;;;;;6.63;1.27;;;;;;;-0.65;100.00;99606.91;4767829;30;20063;-78
2022/02/20 05:50:24;;;;;;;7.78;0.60;;;;;;;-0.58;100.00;99606.09;4768233;30;20100;-78
2022/02/20 05:52:49;;;;;;;7.78;1.20;;;;;;;-0.68;100.00;99589.53;4770398;30;20118;-78
2022/02/20 05:55:15;;;;;;;6.55;0.70;;;;;;;-0.67;100.00;99585.91;4767769;30;20050;-78
2022/02/20 05:57:51;;;;;;;3.38;0.55;;;;;;;-0.43;100.00;99616.06;4768824;30;20035;-78
2022/02/20 06:00:20;;;;;;;6.82;1.00;;;;;;;-0.38;100.00;99619.09;4768613;30;20184;-78
2022/02/20 06:02:46;;;;;;;9.02;1.00;;;;;;;-0.34;100.00;99620.41;4770961;30;20024;-78
2022/02/20 06:05:12;;;;;;;8.85;0.88;;;;;;;-0.39;100.00;99598.94;4769312;30;20036;-78
2022/02/20 06:07:38;;;;;;;9.60;1.38;;;;;;;-0.34;100.00;99599.28;4753123;30;20067;-78
2022/02/20 06:10:05;;;;;;;5.80;0.85;;;;;;;-0.17;100.00;99613.38;4765650;30;20071;-80
2022/02/20 06:12:31;;;;;;;11.10;0.90;;;;;;;-0.13;100.00;99612.06;4766557;30;20032;-79
2022/02/20 06:14:56;;;;;;;6.40;0.68;;;;;;;-0.38;100.00;99572.34;4768067;30;20054;-78
2022/02/20 06:17:22;;;;;;;4.75;0.45;;;;;;;-0.07;100.00;99611.44;4773235;30;20028;-79
2022/02/20 06:19:47;;;;;;;11.57;1.10;;;;;;;-0.10;100.00;99609.97;4770240;30;20035;-79
2022/02/20 06:22:14;;;;;;;8.80;0.73;;;;;;;-0.03;100.00;99623.38;4752951;30;20051;-78
2022/02/20 06:24:39;;;;;;;5.93;0.70;;;;;;;-0.02;100.00;99612.63;4772606;30;20058;-79
2022/02/20 06:27:05;;;;;;;9.05;1.00;;;;;;;0.04;100.00;99616.47;4771094;30;20459;-79
2022/02/20 06:29:31;;;;;;;11.82;0.80;;;;;;;-0.16;100.00;99570.94;4776599;30;20031;-78
2022/02/20 06:31:57;;;;;;;8.00;0.90;;;;;;;0.12;100.00;99610.34;4757297;30;20487;-79
2022/02/20 06:34:23;;;;;;;8.70;0.70;;;;;;;0.15;100.00;99608.22;4772335;30;20051;-79
2022/02/20 06:36:48;;;;;;;5.82;0.75;;;;;;;-0.04;100.00;99579.41;4772003;30;20121;-79
2022/02/20 06:39:13;;;;;;;4.88;1.10;;;;;;;0.18;100.00;99607.91;4770874;30;20055;-79
2022/02/20 06:41:42;;;;;;;4.38;0.70;;;;;;;0.20;100.00;99616.50;4770559;30;20115;-79
2022/02/20 06:44:07;;;;;;;8.90;0.80;;;;;;;0.08;100.00;99599.28;4753590;30;20043;-79
2022/02/20 06:46:33;;;;;;;6.18;0.90;;;;;;;0.09;100.00;99592.97;4772441;30;20078;-79
2022/02/20 06:48:59;;;;;;;5.60;0.70;;;;;;;0.25;100.00;99613.38;4770007;30;20039;-79
2022/02/20 06:51:26;;;;;;;5.78;0.98;;;;;;;0.28;100.00;99610.41;4769963;30;20138;-79
2022/02/20 06:53:51;;;;;;;5.93;0.80;;;;;;;0.32;100.00;99613.53;4776970;30;20043;-79
2022/02/20 06:56:17;;;;;;;5.55;0.77;;;;;;;0.36;100.00;99614.88;4756503;30;20078;-79
2022/02/20 06:58:43;;;;;;;6.07;0.57;;;;;;;0.41;100.00;99610.75;4792012;29;20082;-79
2022/02/20 07:01:08;;;;;;;5.80;0.60;;;;;;;0.49;100.00;99614.41;4767651;30;20032;-79
2022/02/20 07:03:34;;;;;;;5.65;0.70;;;;;;;0.54;100.00;99614.75;4769771;30;20047;-79
2022/02/20 07:05:59;;;;;;;7.65;0.82;;;;;;;0.60;100.00;99609.63;4771527;29;20458;-79
2022/02/20 07:08:24;;;;;;;3.28;0.60;;;;;;;0.68;100.00;99612.28;4769295;30;20046;-79
2022/02/20 07:10:50;;;;;;;8.57;0.70;;;;;;;0.76;100.00;99613.25;4758239;30;20079;-80
2022/02/20 07:13:16;;;;;;;4.35;0.77;;;;;;;0.84;100.00;99614.09;4740253;30;20068;-79
2022/02/20 07:15:41;;;;;;;7.10;0.50;;;;;;;0.90;100.00;99616.09;4754145;30;20044;-80
2022/02/20 07:18:07;;;;;;;4.28;0.57;;;;;;;0.95;100.00;99615.56;4771125;30;20046;-80
2022/02/20 07:20:32;;;;;;;5.40;0.70;;;;;;;0.98;100.00;99615.25;4770103;30;20063;-79
2022/02/20 07:22:58;;;;;;;4.40;0.50;;;;;;;1.08;100.00;99617.72;4771680;30;20446;-78
2022/02/20 07:25:23;;;;;;;7.32;0.85;;;;;;;1.12;100.00;99616.41;4770947;30;20550;-79
2022/02/20 07:27:55;;;;;;;13.45;1.55;;;;;;;0.97;100.00;99597.72;4755096;30;20043;-79
2022/02/20 07:30:22;;;;;;;6.68;1.00;;;;;;;1.09;100.00;99625.53;4773143;30;20046;-79
2022/02/20 07:32:48;;;;;;;6.82;0.88;;;;;;;1.11;100.00;99628.81;4770594;30;20371;-79
2022/02/20 07:35:15;;;;;;;5.97;0.77;;;;;;;1.03;100.00;99604.16;4771661;30;20043;-79
2022/02/20 07:37:41;;;;;;;4.43;0.63;;;;;;;0.80;100.00;99561.66;4775922;30;20046;-79
2022/02/20 07:40:07;;;;;;;5.93;0.82;;;;;;;1.18;100.00;99605.94;4783179;29;20044;-79
2022/02/20 07:42:33;;;;;;;5.78;0.70;;;;;;;1.22;100.00;99598.50;4753197;30;20220;-78
2022/02/20 07:44:58;;;;;;;7.85;0.90;;;;;;;1.39;100.00;99610.75;4768923;30;20118;-80
2022/02/20 07:47:24;;;;;;;9.57;0.88;;;;;;;1.51;100.00;99613.84;4771775;30;20101;-78
2022/02/20 07:49:50;;;;;;;3.20;0.88;;;;;;;1.58;100.00;99620.09;4769825;30;20031;-79
2022/02/20 07:52:16;;;;;;;7.95;0.75;;;;;;;1.40;100.00;99569.16;4772246;30;20474;-79
2022/02/20 07:54:42;;;;;;;9.25;0.73;;;;;;;1.84;100.00;99622.50;4768928;30;20119;-78
2022/02/20 07:57:07;;;;;;;5.72;0.63;;;;;;;1.93;100.00;99619.84;4770445;30;20046;-79
2022/02/20 07:59:33;;;;;;;9.15;1.20;;;;;;;1.81;100.00;99609.59;4755937;30;20035;-78
2022/02/20 08:01:58;;;;;;;6.82;1.17;;;;;;;1.86;100.00;99620.53;4771497;30;20046;-80
2022/02/20 08:04:24;;;;;;;6.55;0.85;;;;;;;1.95;100.00;99615.19;4771547;30;20047;-80
2022/02/20 08:06:51;;;;;;;5.75;0.70;;;;;;;2.04;100.00;99619.44;4773320;30;20051;-78
2022/02/20 08:09:18;;;;;;;8.77;0.98;;;;;;;2.15;100.00;99629.66;4742362;30;20039;-78
2022/02/20 08:11:44;;;;;;;8.13;1.00;;;;;;;2.21;100.00;99618.38;4776208;30;20036;-78
2022/02/20 08:14:10;;;;;;;13.95;1.15;;;;;;;2.30;100.00;99617.31;4772764;30;20050;-79
2022/02/20 08:16:36;;;;;;;7.20;1.00;;;;;;;2.37;100.00;99616.63;4781213;30;20182;-78
2022/02/20 08:19:04;;;;;;;9.77;0.80;;;;;;;2.46;100.00;99623.53;4777772;30;20125;-79
2022/02/20 08:21:29;;;;;;;6.25;0.70;;;;;;;2.51;100.00;99631.78;4771344;30;20107;-78
2022/02/20 08:23:55;;;;;;;7.82;1.10;;;;;;;2.40;100.00;99603.81;4770894;30;20130;-79
2022/02/20 08:26:22;;;;;;;7.82;0.90;;;;;;;2.41;100.00;99599.34;4771979;30;20050;-80
2022/02/20 08:28:49;;;;;;;8.70;1.15;;;;;;;2.56;100.00;99605.56;4770787;30;20036;-79
2022/02/20 08:31:15;;;;;;;7.65;1.17;;;;;;;2.60;100.00;99609.50;4769796;30;20119;-79
2022/02/20 08:33:42;;;;;;;11.63;1.17;;;;;;;2.59;100.00;99599.88;4771275;30;20143;-79
2022/02/20 08:36:09;;;;;;;15.68;1.55;;;;;;;2.65;100.00;99601.84;4770185;30;20118;-80
2022/02/20 08:38:36;;;;;;;9.32;1.05;;;;;;;2.57;100.00;99581.47;4770567;30;20134;-80
2022/02/20 08:41:03;;;;;;;5.18;0.90;;;;;;;2.76;100.00;99598.75;4770112;30;20028;-80
2022/02/20 08:43:28;;;;;;;9.00;1.20;;;;;;;2.86;100.00;99581.75;4756661;30;20039;-80
2022/02/20 08:45:54;;;;;;;11.95;1.35;;;;;;;3.00;100.00;99575.63;4771166;30;20558;-80
2022/02/20 08:48:20;;;;;;;12.32;1.40;;;;;;;3.03;100.00;99578.75;4774817;30;20045;-80
2022/02/20 08:50:45;;;;;;;10.60;1.15;;;;;;;2.91;100.00;99550.97;4780081;30;20104;-80
2022/02/20 08:53:11;;;;;;;10.63;1.02;;;;;;;3.16;100.00;99585.28;4778307;29;20032;-80
2022/02/20 08:55:37;;;;;;;9.73;1.10;;;;;;;3.00;100.00;99546.41;4773906;29;20040;-80
2022/02/20 08:58:03;;;;;;;9.07;0.90;;;;;;;3.24;100.00;99571.91;4770743;30;20042;-79
2022/02/20 09:00:29;;;;;;;7.10;0.95;;;;;;;3.19;100.00;99548.53;4768165;30;20463;-80
2022/02/20 09:02:55;;;;;;;7.32;1.20;;;;;;;3.36;100.00;99573.13;4769999;30;20043;-80
2022/02/20 09:05:22;;;;;;;8.55;0.93;;;;;;;3.36;100.00;99574.97;4770041;30;20039;-80
2022/02/20 09:07:47;;;;;;;7.35;1.20;;;;;;;3.27;100.00;99545.78;4771044;30;20031;-80
2022/02/20 09:10:13;;;;;;;8.52;1.00;;;;;;;3.44;100.00;99574.84;4770905;30;20031;-80
2022/02/20 09:12:41;;;;;;;9.50;1.15;;;;;;;3.35;100.00;99554.72;4769028;30;20104;-80
2022/02/20 09:15:08;;;;;;;13.48;1.13;;;;;;;3.47;100.00;99564.69;4771294;30;20482;-79
2022/02/20 09:17:33;;;;;;;12.80;1.20;;;;;;;3.50;100.00;99563.50;4768954;30;20452;-80
2022/02/20 09:20:00;;;;;;;7.38;0.88;;;;;;;3.53;100.00;99571.09;4774882;30;20031;-80
2022/02/20 09:22:26;;;;;;;10.75;1.00;;;;;;;3.42;100.00;99548.47;4768230;30;20035;-80
2022/02/20 09:24:52;;;;;;;8.05;0.88;;;;;;;3.57;100.00;99558.25;4768336;30;20054;-80
2022/02/20 09:27:19;;;;;;;9.68;0.95;;;;;;;3.56;100.00;99551.31;4754425;30;20035;-80
2022/02/20 09:29:44;;;;;;;7.13;1.08;;;;;;;3.67;100.00;99553.47;4772339;30;20116;-80
2022/02/20 09:32:10;;;;;;;8.68;1.00;;;;;;;3.67;100.00;99548.97;4773224;30;20063;-79
2022/02/20 09:34:36;;;;;;;7.15;1.15;;;;;;;3.53;100.00;99521.41;4771559;30;20051;-79
2022/02/20 09:37:02;;;;;;;7.57;0.98;;;;;;;3.80;100.00;99543.00;4765756;30;20467;-79
2022/02/20 09:39:28;;;;;;;7.78;1.10;;;;;;;3.75;100.00;99522.28;4766880;30;20036;-79
2022/02/20 09:41:56;;;;;;;10.65;1.02;;;;;;;3.86;100.00;99528.13;4774729;30;20185;-80
2022/02/20 09:44:21;;;;;;;4.75;0.80;;;;;;;3.95;100.00;99537.66;4762395;30;20344;-79
2022/02/20 09:46:48;;;;;;;8.48;0.90;;;;;;;3.94;100.00;99533.34;4765567;30;20073;-79
2022/02/20 09:49:14;;;;;;;10.00;1.10;;;;;;;4.02;100.00;99527.09;4766576;30;20108;-79
2022/02/20 09:51:39;;;;;;;4.93;1.02;;;;;;;4.10;100.00;99522.47;4768807;30;20044;-79
2022/02/20 09:54:04;;;;;;;11.68;1.55;;;;;;;4.16;100.00;99518.22;4765443;30;20043;-79
2022/02/20 09:56:31;;;;;;;6.88;1.10;;;;;;;4.32;100.00;99517.16;4761102;30;20051;-79
2022/02/20 09:58:58;;;;;;;12.23;1.30;;;;;;;4.42;100.00;99520.34;4751167;30;20466;-79
2022/02/20 10:01:23;;;;;;;13.95;1.52;;;;;;;4.45;100.00;99507.47;4764814;29;20096;-79
2022/02/20 10:03:49;;;;;;;13.18;1.40;;;;;;;4.31;100.00;99492.38;4766556;30;20043;-79
2022/02/20 10:06:24;;;;;;;11.48;1.67;;;;;;;4.27;100.00;99499.06;4763383;30;20024;-79
2022/02/20 10:08:52;;;;;;;11.57;1.35;;;;;;;4.24;100.00;99510.97;4763201;30;20524;-80
2022/02/20 10:11:28;;;;;;;14.27;1.42;;;;;;;4.26;100.00;99509.94;4764960;30;20051;-79
2022/02/20 10:14:04;;;;;;;12.60;1.50;;;;;;;4.31;100.00;99499.56;4780490;29;20138;-79
2022/02/20 10:16:32;;;;;;;12.57;2.00;;;;;;;4.22;100.00;99473.03;4766882;30;20384;-80
2022/02/20 10:19:01;;;;;;;12.70;1.27;;;;;;;4.41;100.00;99502.72;4768198;30;20643;-79
2022/02/20 10:21:29;;;;;;;19.73;1.90;;;;;;;4.36;100.00;99483.81;4751412;30;20363;-79
2022/02/20 10:24:03;;;;;;;10.45;1.27;;;;;;;4.53;100.00;99497.69;4770996;30;20536;-79
2022/02/20 10:26:29;;;;;;;10.55;1.20;;;;;;;4.48;100.00;99468.97;4766295;30;20092;-80
2022/02/20 10:29:08;;;;;;;10.57;1.65;;;;;;;4.65;100.00;99475.66;4768506;30;20052;-79
2022/02/20 10:31:54;;;;;;;9.63;2.30;;;;;;;4.69;100.00;99465.44;4770361;30;20023;-80
2022/02/20 10:34:44;;;;;;;11.73;1.05;;;;;;;4.85;100.00;99469.66;4770114;30;20095;-79
2022/02/20 10:37:09;;;;;;;9.25;1.50;;;;;;;4.74;100.00;99449.69;4765866;30;20669;-80
2022/02/20 10:39:38;;;;;;;8.93;1.10;;;;;;;4.86;100.00;99464.13;4769253;30;20040;-79
2022/02/20 10:42:24;;;;;;;9.70;1.23;;;;;;;4.83;100.00;99453.03;4772698;30;20035;-80
2022/02/20 10:44:51;;;;;;;12.70;1.60;;;;;;;4.80;100.00;99458.75;4768061;30;20463;-79
2022/02/20 10:47:16;;;;;;;15.00;1.90;;;;;;;4.78;100.00;99456.28;4768807;30;20040;-79
2022/02/20 10:49:42;;;;;;;12.23;1.85;;;;;;;4.80;100.00;99445.41;4769157;30;20035;-80
2022/02/20 10:52:20;;;;;;;12.52;1.60;;;;;;;4.87;100.00;99443.63;4758885;30;20039;-79
2022/02/20 10:55:06;;;;;;;13.90;2.03;;;;;;;4.88;100.00;99446.09;4768254;30;20047;-79
2022/02/20 10:57:33;;;;;;;12.18;1.48;;;;;;;4.77;100.00;99422.66;4768034;30;20032;-79
2022/02/20 11:00:09;;;;;;;13.10;1.30;;;;;;;4.84;100.00;99428.84;4771245;30;20528;-79
2022/02/20 11:02:34;;;;;;;10.70;1.70;;;;;;;4.92;100.00;99438.53;4769910;30;20189;-80
2022/02/20 11:05:01;;;;;;;13.52;1.90;;;;;;;4.86;100.00;99436.63;4768983;30;20115;-79
2022/02/20 11:07:26;;;;;;;14.05;1.52;;;;;;;4.90;100.00;99433.41;4769496;30;20418;-79
2022/02/20 11:09:52;;;;;;;10.10;1.33;;;;;;;4.86;100.00;99418.81;4769999;30;20051;-80
2022/02/20 11:12:18;;;;;;;7.97;1.23;;;;;;;4.69;100.00;99394.31;4769271;30;20463;-79
2022/02/20 11:14:44;;;;;;;12.43;1.73;;;;;;;4.89;100.00;99417.59;4771081;30;20046;-79
2022/02/20 11:17:10;;;;;;;15.82;2.03;;;;;;;4.78;100.00;99387.00;4773353;30;20374;-79
2022/02/20 11:19:39;;;;;;;11.32;1.52;;;;;;;4.97;100.00;99413.94;4769877;30;20036;-79
2022/02/20 11:22:05;;;;;;;10.20;1.30;;;;;;;4.92;100.00;99404.69;4772362;30;20697;-79
2022/02/20 11:24:33;;;;;;;9.35;1.60;;;;;;;4.99;100.00;99396.72;4771787;30;20506;-79
2022/02/20 11:27:02;;;;;;;11.70;1.70;;;;;;;4.92;100.00;99375.38;4772902;30;20047;-79